Time;durP1;ratioP1;P1;durP2;ratioP2;P2;SDS_P1;SDS_P2;PMS_P1;PMS_P2;Temp;Humidity;BMP_temperature;BMP_pressure;BME280_temperature;BME280_humidity;BME280_pressure;Samples;Min_cycle;Max_cycle;Signal;HPM_P1;HPM_P2
2022/01/03 00:00:51;;;;;;;73.03;31.20;;;;;;;5.39;100.00;101395.09;4959549;29;20385;-72
2022/01/03 00:03:37;;;;;;;59.20;30.92;;;;;;;5.82;100.00;101401.75;4960073;28;20027;-73
2022/01/03 00:06:23;;;;;;;59.38;31.30;;;;;;;5.43;100.00;101394.28;4959490;29;20031;-72
2022/01/03 00:09:09;;;;;;;62.97;32.15;;;;;;;6.09;100.00;101381.28;4960131;28;20031;-72
2022/01/03 00:11:55;;;;;;;64.53;31.30;;;;;;;6.20;100.00;101378.81;4959892;29;20027;-72
2022/01/03 00:14:42;;;;;;;102.60;32.60;;;;;;;5.51;100.00;101373.63;4959699;29;20035;-72
2022/01/03 00:17:27;;;;;;;78.85;30.25;;;;;;;5.50;100.00;101365.81;4958465;29;20093;-72
2022/01/03 00:20:14;;;;;;;65.00;28.52;;;;;;;5.30;100.00;101361.19;4959197;29;20444;-73
2022/01/03 00:23:03;;;;;;;67.40;29.42;;;;;;;5.59;100.00;101352.91;4964814;28;20499;-73
2022/01/03 00:25:53;;;;;;;52.97;27.35;;;;;;;5.43;100.00;101339.72;4963597;28;20478;-73
2022/01/03 00:28:58;;;;;;;42.22;25.75;;;;;;;5.58;100.00;101326.03;4978119;28;20089;-72
2022/01/03 00:31:44;;;;;;;49.42;26.63;;;;;;;5.84;100.00;101324.66;4979371;28;20035;-73
2022/01/03 00:34:35;;;;;;;44.95;25.50;;;;;;;5.25;100.00;101318.72;4963432;28;20041;-73
2022/01/03 00:37:23;;;;;;;46.83;26.80;;;;;;;5.15;100.00;101298.63;4978162;28;20099;-72
2022/01/03 00:40:10;;;;;;;41.88;24.95;;;;;;;5.34;100.00;101303.22;4964475;28;20093;-73
2022/01/03 00:42:56;;;;;;;48.90;25.02;;;;;;;5.43;100.00;101309.41;4978186;28;20030;-72
2022/01/03 00:45:42;;;;;;;38.38;23.83;;;;;;;4.98;100.00;101313.13;4978542;28;20037;-72
2022/01/03 00:48:32;;;;;;;50.70;25.60;;;;;;;4.84;100.00;101300.78;4964896;28;20030;-74
2022/01/03 00:51:19;;;;;;;61.00;26.45;;;;;;;4.74;100.00;101299.78;4977818;28;20110;-72
2022/01/03 00:54:05;;;;;;;41.35;25.77;;;;;;;5.31;100.00;101291.94;4978397;28;20035;-72
2022/01/03 00:56:54;;;;;;;43.15;25.35;;;;;;;5.13;100.00;101276.97;4964741;28;20027;-72
2022/01/03 00:59:59;;;;;;;64.28;25.48;;;;;;;4.70;100.00;101273.75;4978378;28;20039;-72
2022/01/03 01:03:10;;;;;;;43.03;25.83;;;;;;;5.11;100.00;101283.88;4977608;28;20041;-72
2022/01/03 01:05:56;;;;;;;56.13;26.08;;;;;;;5.30;100.00;101274.59;4978062;28;20121;-73
2022/01/03 01:08:44;;;;;;;34.33;22.50;;;;;;;5.38;100.00;101261.72;4977148;28;20062;-72
2022/01/03 01:11:31;;;;;;;38.78;22.48;;;;;;;5.12;100.00;101259.66;4977435;28;20031;-72
2022/01/03 01:14:17;;;;;;;31.55;20.55;;;;;;;5.45;100.00;101264.38;4964396;28;20170;-72
2022/01/03 01:17:03;;;;;;;37.28;22.42;;;;;;;5.68;100.00;101270.72;4976108;28;20451;-72
2022/01/03 01:19:49;;;;;;;33.15;21.25;;;;;;;5.61;100.00;101271.50;4964279;28;20030;-72
2022/01/03 01:22:35;;;;;;;32.97;21.33;;;;;;;5.61;100.00;101274.09;4976485;28;20027;-71
2022/01/03 01:25:27;;;;;;;34.97;22.02;;;;;;;5.72;100.00;101272.50;4976753;28;20371;-72
2022/01/03 01:28:15;;;;;;;29.15;20.08;;;;;;;5.34;100.00;101263.38;4962944;28;20367;-72
2022/01/03 01:31:02;;;;;;;27.92;19.42;;;;;;;5.63;100.00;101258.53;4978241;28;20046;-72
2022/01/03 01:33:55;;;;;;;39.33;20.70;;;;;;;5.24;100.00;101253.75;4976999;28;20109;-72
2022/01/03 01:36:42;;;;;;;36.90;20.42;;;;;;;5.35;100.00;101249.56;4977194;28;20022;-72
2022/01/03 01:39:30;;;;;;;34.90;20.50;;;;;;;4.84;100.00;101248.88;4963394;28;20035;-72
2022/01/03 01:42:17;;;;;;;33.30;20.67;;;;;;;5.17;100.00;101244.13;4977138;28;20027;-72
2022/01/03 01:45:08;;;;;;;73.35;22.77;;;;;;;5.24;100.00;101236.41;4975796;28;20027;-72
2022/01/03 01:47:58;;;;;;;89.03;23.88;;;;;;;4.85;100.00;101232.44;4963445;28;20066;-72
2022/01/03 01:50:50;;;;;;;51.42;23.80;;;;;;;5.02;100.00;101221.44;4976026;28;20086;-72
2022/01/03 01:53:44;;;;;;;43.42;22.33;;;;;;;4.98;100.00;101213.56;4963630;28;20031;-73
2022/01/03 01:57:05;;;;;;;52.03;23.27;;;;;;;5.72;100.00;101206.63;4963503;28;20026;-72
2022/01/03 02:00:05;;;;;;;34.05;22.17;;;;;;;4.99;100.00;101200.63;4908551;28;20026;-72
2022/01/03 02:03:12;;;;;;;39.17;22.80;;;;;;;5.12;100.00;101212.91;4963148;28;20045;-72
2022/01/03 02:06:25;;;;;;;55.33;24.02;;;;;;;5.19;100.00;101206.91;4976434;28;20130;-72
2022/01/03 02:09:29;;;;;;;35.42;22.60;;;;;;;5.50;100.00;101207.28;4976691;28;20023;-72
2022/01/03 02:12:16;;;;;;;33.30;21.75;;;;;;;5.33;100.00;101200.19;4976538;28;20031;-71
2022/01/03 02:15:04;;;;;;;86.97;23.00;;;;;;;5.34;100.00;101193.22;4975636;28;20027;-73
2022/01/03 02:17:50;;;;;;;32.17;21.40;;;;;;;5.40;100.00;101188.13;4963583;28;20027;-71
2022/01/03 02:20:36;;;;;;;33.95;19.90;;;;;;;5.12;100.00;101173.97;4975830;28;20026;-72
2022/01/03 02:23:22;;;;;;;76.72;22.30;;;;;;;4.74;100.00;101177.78;4962469;28;20477;-72
2022/01/03 02:26:07;;;;;;;66.15;22.98;;;;;;;4.50;100.00;101161.88;4976868;28;20027;-72
2022/01/03 02:28:53;;;;;;;49.10;22.60;;;;;;;5.04;100.00;101175.59;4975972;28;20034;-73
2022/01/03 02:31:39;;;;;;;39.75;21.77;;;;;;;5.17;100.00;101156.69;4962505;28;20105;-72
2022/01/03 02:34:29;;;;;;;39.17;22.42;;;;;;;5.52;100.00;101162.25;4976044;28;20045;-72
2022/01/03 02:37:15;;;;;;;103.97;23.75;;;;;;;5.21;100.00;101163.69;4976130;28;20034;-72
2022/01/03 02:40:01;;;;;;;38.97;20.35;;;;;;;5.02;100.00;101164.31;4975951;28;20046;-72
2022/01/03 02:42:48;;;;;;;37.42;20.05;;;;;;;5.16;100.00;101159.28;4976010;28;20150;-72
2022/01/03 02:45:34;;;;;;;92.40;22.00;;;;;;;4.69;100.00;101145.72;4975989;28;20400;-72
2022/01/03 02:48:23;;;;;;;28.27;18.70;;;;;;;4.99;100.00;101150.44;4975094;28;20106;-72
2022/01/03 02:51:13;;;;;;;92.40;21.00;;;;;;;5.38;100.00;101146.53;4976053;28;20098;-72
2022/01/03 02:53:58;;;;;;;65.28;21.05;;;;;;;5.04;100.00;101135.78;4976017;28;20031;-72
2022/01/03 02:56:44;;;;;;;44.00;21.50;;;;;;;5.27;100.00;101124.75;4975734;28;20019;-73
2022/01/03 02:59:30;;;;;;;33.88;19.55;;;;;;;5.01;100.00;101118.44;4974393;28;20113;-73
2022/01/03 03:02:20;;;;;;;34.30;18.70;;;;;;;5.21;100.00;101096.16;4975793;28;20031;-72
2022/01/03 03:05:08;;;;;;;30.27;18.30;;;;;;;4.99;100.00;101101.94;4975470;28;20086;-72
2022/01/03 03:07:54;;;;;;;44.65;18.95;;;;;;;4.92;100.00;101094.09;4975292;28;20027;-72
2022/01/03 03:10:40;;;;;;;64.03;18.15;;;;;;;4.30;100.00;101084.69;4975678;28;20023;-72
2022/01/03 03:13:26;;;;;;;41.08;18.60;;;;;;;4.84;100.00;101086.22;4975772;28;20344;-73
2022/01/03 03:16:12;;;;;;;84.32;22.13;;;;;;;4.92;100.00;101079.41;4975454;28;20026;-73
2022/01/03 03:18:58;;;;;;;32.58;18.80;;;;;;;5.16;100.00;101089.16;4975513;28;20148;-71
2022/01/03 03:21:44;;;;;;;107.50;24.40;;;;;;;5.40;100.00;101090.25;4975583;28;20449;-73
2022/01/03 03:24:30;;;;;;;60.50;19.38;;;;;;;5.07;100.00;101078.69;4975310;28;20068;-73
2022/01/03 03:27:16;;;;;;;41.75;18.38;;;;;;;4.66;100.00;101072.13;4975977;28;20031;-72
2022/01/03 03:30:04;;;;;;;40.13;20.38;;;;;;;4.88;100.00;101076.75;4962291;28;20321;-72
2022/01/03 03:32:54;;;;;;;65.57;20.20;;;;;;;5.04;100.00;101068.25;4978365;28;20391;-73
2022/01/03 03:35:41;;;;;;;110.05;19.33;;;;;;;4.45;100.00;101052.00;4965805;28;20452;-72
2022/01/03 03:38:28;;;;;;;50.53;19.38;;;;;;;4.50;100.00;101060.72;4980840;28;20038;-72
2022/01/03 03:41:13;;;;;;;31.52;18.92;;;;;;;5.01;100.00;101079.47;4965454;28;20052;-72
2022/01/03 03:43:59;;;;;;;29.38;17.92;;;;;;;4.85;100.00;101084.47;4966085;28;20319;-72
2022/01/03 03:46:45;;;;;;;49.13;17.83;;;;;;;4.93;100.00;101088.91;4978761;28;20151;-72
2022/01/03 03:49:32;;;;;;;41.03;18.88;;;;;;;4.88;100.00;101090.59;4979664;28;20045;-72
2022/01/03 03:52:17;;;;;;;28.98;17.42;;;;;;;4.97;100.00;101087.22;4977849;28;20034;-72
2022/01/03 03:55:04;;;;;;;69.40;19.02;;;;;;;5.30;100.00;101082.34;4980245;28;20109;-72
2022/01/03 03:57:50;;;;;;;53.47;17.67;;;;;;;5.32;100.00;101058.13;4978955;28;20363;-72
2022/01/03 04:00:36;;;;;;;44.03;17.63;;;;;;;5.23;100.00;101050.25;4965542;28;20121;-72
2022/01/03 04:03:21;;;;;;;27.63;18.08;;;;;;;5.05;100.00;101044.03;4978887;28;20027;-72
2022/01/03 04:06:07;;;;;;;34.45;17.85;;;;;;;4.97;100.00;101062.13;4978851;28;20102;-72
2022/01/03 04:08:53;;;;;;;39.17;17.45;;;;;;;4.55;100.00;101053.00;4965003;28;20031;-72
2022/01/03 04:11:39;;;;;;;33.85;18.42;;;;;;;4.99;100.00;101055.22;4978900;28;20033;-73
2022/01/03 04:14:25;;;;;;;30.48;16.95;;;;;;;5.28;100.00;101060.69;4979077;28;20037;-71
2022/01/03 04:17:12;;;;;;;34.38;18.00;;;;;;;5.01;100.00;101061.31;4978339;28;20074;-73
2022/01/03 04:19:57;;;;;;;39.50;17.83;;;;;;;5.02;100.00;101070.84;4978981;28;20026;-72
2022/01/03 04:22:44;;;;;;;27.60;17.23;;;;;;;5.09;100.00;101071.75;4977603;28;20054;-73
2022/01/03 04:25:29;;;;;;;24.77;17.50;;;;;;;5.01;100.00;101066.50;4978462;28;20088;-71
2022/01/03 04:28:15;;;;;;;30.58;19.15;;;;;;;5.40;100.00;101066.84;4978204;28;20027;-73
2022/01/03 04:31:01;;;;;;;38.75;18.10;;;;;;;5.11;100.00;101064.88;4977772;28;20038;-73
2022/01/03 04:33:47;;;;;;;37.65;18.92;;;;;;;4.99;100.00;101073.38;4977587;28;20415;-72
2022/01/03 04:36:32;;;;;;;32.47;19.30;;;;;;;5.15;100.00;101064.06;4978408;28;20034;-72
2022/01/03 04:39:18;;;;;;;25.13;17.00;;;;;;;5.16;100.00;101065.78;4978166;28;20379;-72
2022/01/03 04:42:04;;;;;;;24.55;15.95;;;;;;;4.89;100.00;101057.69;4978800;28;20026;-70
2022/01/03 04:44:50;;;;;;;28.95;17.02;;;;;;;4.71;100.00;101057.50;4977589;28;20030;-72
2022/01/03 04:47:35;;;;;;;25.13;17.35;;;;;;;5.15;100.00;101061.44;4963736;28;20110;-72
2022/01/03 04:50:21;;;;;;;23.52;16.25;;;;;;;5.05;100.00;101051.81;4978242;28;20027;-71
2022/01/03 04:53:07;;;;;;;24.50;16.85;;;;;;;4.66;100.00;101067.84;4977705;28;20059;-72
2022/01/03 04:55:53;;;;;;;25.27;17.30;;;;;;;5.14;100.00;101080.47;4965610;28;20038;-73
2022/01/03 04:58:40;;;;;;;51.22;18.20;;;;;;;4.61;100.00;101073.81;4977703;28;20110;-72
2022/01/03 05:01:26;;;;;;;28.13;19.15;;;;;;;5.09;100.00;101080.44;4963891;28;20031;-72
2022/01/03 05:04:12;;;;;;;28.25;18.00;;;;;;;4.88;100.00;101067.22;4977523;28;20032;-73
2022/01/03 05:06:58;;;;;;;36.13;18.67;;;;;;;4.42;100.00;101070.13;4977627;28;20057;-72
2022/01/03 05:09:43;;;;;;;40.50;20.75;;;;;;;5.04;100.00;101084.72;4963955;28;20093;-73
2022/01/03 05:12:29;;;;;;;31.70;19.73;;;;;;;4.99;100.00;101075.13;4964196;28;20027;-72
2022/01/03 05:15:15;;;;;;;36.38;20.90;;;;;;;5.25;100.00;101066.75;4964272;28;20056;-73
2022/01/03 05:18:01;;;;;;;44.47;20.13;;;;;;;4.75;100.00;101054.09;4977928;28;20340;-72
2022/01/03 05:20:46;;;;;;;31.67;18.35;;;;;;;4.30;100.00;101051.81;4977441;28;20018;-72
2022/01/03 05:23:32;;;;;;;44.33;20.35;;;;;;;4.74;100.00;101058.41;4976640;28;20043;-72
2022/01/03 05:26:18;;;;;;;50.38;20.15;;;;;;;4.86;100.00;101057.66;4977090;28;20038;-74
2022/01/03 05:29:04;;;;;;;31.55;20.33;;;;;;;4.99;100.00;101067.34;4976357;28;20067;-72
2022/01/03 05:31:49;;;;;;;37.60;18.52;;;;;;;4.84;100.00;101054.19;4977292;28;20045;-72
2022/01/03 05:34:35;;;;;;;38.33;18.92;;;;;;;4.64;100.00;101048.78;4976982;28;20027;-73
2022/01/03 05:37:21;;;;;;;30.77;20.13;;;;;;;4.53;100.00;101052.09;4977436;28;20090;-72
2022/01/03 05:40:07;;;;;;;36.38;20.10;;;;;;;4.91;100.00;101059.47;4976848;28;20027;-72
2022/01/03 05:42:53;;;;;;;30.02;18.95;;;;;;;4.78;100.00;101061.91;4962822;28;20087;-73
2022/01/03 05:45:39;;;;;;;42.47;18.25;;;;;;;4.49;100.00;101076.25;4975754;28;20023;-73
2022/01/03 05:48:25;;;;;;;24.65;17.52;;;;;;;4.23;100.00;101085.44;4977015;28;20023;-72
2022/01/03 05:51:11;;;;;;;29.70;18.80;;;;;;;4.39;100.00;101074.41;4976881;28;20034;-72
2022/01/03 05:53:56;;;;;;;27.95;18.52;;;;;;;4.24;100.00;101056.03;4977047;28;20085;-73
2022/01/03 05:56:42;;;;;;;27.35;17.58;;;;;;;4.34;100.00;101060.53;4976895;28;20045;-73
2022/01/03 05:59:28;;;;;;;25.80;17.88;;;;;;;4.24;100.00;101048.28;4977742;28;20038;-72
2022/01/03 06:02:14;;;;;;;27.67;17.65;;;;;;;4.51;100.00;101044.28;4976993;28;20041;-72
2022/01/03 06:05:02;;;;;;;29.27;19.38;;;;;;;4.73;100.00;101046.28;4976415;28;20122;-73
2022/01/03 06:07:47;;;;;;;54.15;21.20;;;;;;;4.67;100.00;101033.22;4976580;28;20435;-73
2022/01/03 06:10:34;;;;;;;54.80;21.70;;;;;;;5.08;100.00;101023.28;4976815;28;20070;-72
2022/01/03 06:13:20;;;;;;;30.92;19.35;;;;;;;4.87;100.00;101023.09;4962882;28;20049;-71
2022/01/03 06:16:07;;;;;;;53.47;19.38;;;;;;;4.62;100.00;101016.75;4975620;28;20026;-71
2022/01/03 06:18:53;;;;;;;30.67;20.15;;;;;;;4.80;100.00;101010.88;4976571;28;20365;-73
2022/01/03 06:21:41;;;;;;;87.82;24.92;;;;;;;4.79;100.00;101007.41;4976182;28;20460;-73
2022/01/03 06:24:26;;;;;;;79.03;25.42;;;;;;;4.69;100.00;100999.53;4976088;28;20118;-73
2022/01/03 06:27:12;;;;;;;37.95;22.67;;;;;;;4.69;100.00;101007.31;4962193;28;20383;-72
2022/01/03 06:29:58;;;;;;;42.80;24.23;;;;;;;4.90;100.00;101003.22;4976060;28;20117;-72
2022/01/03 06:32:43;;;;;;;58.03;25.83;;;;;;;4.94;100.00;101004.97;4976125;28;20113;-73
2022/01/03 06:35:30;;;;;;;45.25;24.35;;;;;;;4.68;100.00;101009.06;4975726;28;20089;-73
2022/01/03 06:38:16;;;;;;;54.80;23.05;;;;;;;4.70;100.00;101006.44;4976463;28;20458;-73
2022/01/03 06:41:01;;;;;;;39.45;21.98;;;;;;;4.71;100.00;101003.03;4976423;28;20054;-73
2022/01/03 06:43:47;;;;;;;42.65;21.63;;;;;;;4.55;100.00;101011.50;4976721;28;20334;-72
2022/01/03 06:46:33;;;;;;;43.42;22.30;;;;;;;4.67;100.00;101025.44;4962096;28;20030;-73
2022/01/03 06:49:19;;;;;;;40.35;21.60;;;;;;;4.50;100.00;101021.81;4976149;28;20050;-72
2022/01/03 06:52:05;;;;;;;36.60;21.23;;;;;;;4.55;100.00;101030.50;4975718;28;20073;-72
2022/01/03 06:54:51;;;;;;;35.47;20.38;;;;;;;4.60;100.00;101031.44;4976559;28;20022;-72
2022/01/03 06:57:37;;;;;;;49.63;22.85;;;;;;;4.83;100.00;101042.06;4975699;28;20576;-72
2022/01/03 07:00:23;;;;;;;31.48;20.15;;;;;;;4.91;100.00;101032.66;4976760;28;20031;-74
2022/01/03 07:03:09;;;;;;;41.65;20.95;;;;;;;5.01;100.00;101027.56;4975916;28;20036;-73
2022/01/03 07:05:54;;;;;;;27.33;18.95;;;;;;;5.16;100.00;101025.09;4975803;28;20037;-71
2022/01/03 07:08:40;;;;;;;39.95;21.10;;;;;;;5.11;100.00;101018.97;4976123;28;20023;-71
2022/01/03 07:11:26;;;;;;;30.92;19.08;;;;;;;5.06;100.00;101020.69;4975526;28;20117;-70
2022/01/03 07:20:13;;;;;;;29.80;19.80;;;;;;;5.80;100.00;100997.88;4976025;28;20325;-71
2022/01/03 07:23:00;;;;;;;27.15;19.60;;;;;;;6.07;100.00;101011.06;4975164;28;20055;-70
2022/01/03 07:25:47;;;;;;;33.38;19.30;;;;;;;6.02;100.00;100996.31;4975678;28;20050;-71
2022/01/03 07:28:32;;;;;;;26.40;18.75;;;;;;;6.61;100.00;101000.00;4975276;28;20519;-70
2022/01/03 07:31:18;;;;;;;26.52;17.70;;;;;;;6.55;100.00;100994.78;4961991;28;20101;-71
2022/01/03 07:34:04;;;;;;;23.23;16.67;;;;;;;6.37;100.00;100979.09;4975484;28;20038;-71
2022/01/03 07:36:50;;;;;;;22.33;16.73;;;;;;;6.72;100.00;100985.28;4975510;28;20066;-71
2022/01/03 07:39:36;;;;;;;29.40;16.60;;;;;;;7.20;100.00;100993.16;4975332;28;20431;-71
2022/01/03 07:42:22;;;;;;;26.60;15.60;;;;;;;7.64;100.00;100988.81;4975338;28;20356;-70
2022/01/03 07:45:08;;;;;;;27.40;14.02;;;;;;;8.27;100.00;100993.88;4961845;28;20038;-71
2022/01/03 07:47:54;;;;;;;18.15;13.18;;;;;;;8.27;100.00;100983.44;4975208;28;20027;-71
2022/01/03 07:50:40;;;;;;;17.83;13.52;;;;;;;8.40;100.00;100967.72;4975710;28;20031;-71
2022/01/03 07:53:27;;;;;;;15.45;12.90;;;;;;;8.76;100.00;100961.44;4975129;28;20048;-71
2022/01/03 07:56:12;;;;;;;20.85;13.65;;;;;;;8.47;100.00;100948.53;4961977;28;20033;-71
2022/01/03 07:58:58;;;;;;;20.58;13.88;;;;;;;8.87;100.00;100928.25;4974823;28;20062;-71
2022/01/03 08:01:44;;;;;;;18.42;13.75;;;;;;;8.98;100.00;100927.31;4960938;28;20042;-71
2022/01/03 08:04:30;;;;;;;21.08;14.07;;;;;;;9.15;100.00;100921.94;4974877;28;20345;-71
2022/01/03 08:07:16;;;;;;;16.80;12.10;;;;;;;9.58;100.00;100938.97;4974907;28;20027;-72
2022/01/03 08:10:06;;;;;;;18.13;12.38;;;;;;;10.29;100.00;100941.66;4974334;28;20027;-71
2022/01/03 08:12:52;;;;;;;16.05;11.15;;;;;;;10.06;100.00;100925.38;4975480;28;20058;-71
2022/01/03 08:15:38;;;;;;;13.95;10.98;;;;;;;10.16;100.00;100924.38;4974733;28;20447;-72
2022/01/03 08:18:24;;;;;;;15.45;11.55;;;;;;;10.16;100.00;100918.28;4976936;28;20117;-71
2022/01/03 08:21:10;;;;;;;15.52;10.77;;;;;;;9.93;100.00;100921.16;4978464;28;20371;-72
2022/01/03 08:23:56;;;;;;;14.40;10.93;;;;;;;10.25;100.00;100918.16;4979468;28;20051;-72
2022/01/03 08:26:42;;;;;;;12.65;10.00;;;;;;;10.38;100.00;100920.63;4978510;28;20041;-71
2022/01/03 08:29:28;;;;;;;13.18;10.07;;;;;;;10.42;100.00;100917.06;4978792;28;20455;-71
2022/01/03 08:32:14;;;;;;;12.27;9.48;;;;;;;10.44;100.00;100917.88;4978752;28;20074;-72
2022/01/03 08:35:00;;;;;;;13.70;10.40;;;;;;;10.02;100.00;100929.75;4977499;28;20205;-71
2022/01/03 08:37:45;;;;;;;15.02;10.43;;;;;;;10.56;100.00;100936.06;4964555;28;20050;-73
2022/01/03 08:40:31;;;;;;;12.65;9.60;;;;;;;11.18;100.00;100945.59;4978701;28;20054;-72
2022/01/03 08:43:17;;;;;;;10.50;8.40;;;;;;;10.88;100.00;100949.56;4978284;28;20033;-72
2022/01/03 08:46:04;;;;;;;10.70;8.73;;;;;;;11.28;100.00;100939.31;4977141;28;20089;-71
2022/01/03 08:48:53;;;;;;;11.43;8.70;;;;;;;11.36;100.00;100938.28;4978321;28;20030;-71
2022/01/03 08:51:39;;;;;;;14.18;10.00;;;;;;;11.84;100.00;100926.94;4977879;28;20066;-72
2022/01/03 08:54:25;;;;;;;11.85;9.52;;;;;;;11.81;100.00;100919.13;4964507;28;20031;-72
2022/01/03 08:57:11;;;;;;;11.13;8.90;;;;;;;11.97;100.00;100915.28;4977317;28;20034;-71
2022/01/03 08:59:56;;;;;;;12.85;9.38;;;;;;;11.72;100.00;100911.44;4977324;28;20034;-71
2022/01/03 09:02:42;;;;;;;13.73;9.80;;;;;;;11.50;100.00;100915.31;4978004;28;20428;-71
2022/01/03 09:05:28;;;;;;;14.05;9.93;;;;;;;11.58;100.00;100908.16;4977483;28;20030;-72
2022/01/03 09:08:15;;;;;;;12.00;9.10;;;;;;;12.05;100.00;100915.16;4963797;28;20118;-71
2022/01/03 09:11:01;;;;;;;12.77;9.45;;;;;;;12.15;100.00;100912.31;4963124;28;20053;-71
2022/01/03 09:13:47;;;;;;;12.27;8.95;;;;;;;12.26;100.00;100904.19;4977442;28;20156;-72
2022/01/03 09:16:33;;;;;;;11.43;8.60;;;;;;;12.33;100.00;100903.16;4977230;28;20066;-71
2022/01/03 09:19:18;;;;;;;11.30;8.90;;;;;;;12.44;100.00;100903.78;4977670;28;20026;-72
2022/01/03 09:22:15;;;;;;;13.07;9.63;;;;;;;12.32;100.00;100902.31;4976591;28;20031;-71
2022/01/03 09:30:55;;;;;;;12.38;9.60;;;;;;;11.61;100.00;100902.03;4977128;28;20101;-72
2022/01/03 09:33:40;;;;;;;12.43;9.95;;;;;;;11.32;100.00;100899.00;4977187;28;20113;-72
2022/01/03 09:36:28;;;;;;;14.02;10.27;;;;;;;11.45;100.00;100893.53;4977277;28;20110;-71
2022/01/03 09:39:13;;;;;;;13.52;9.88;;;;;;;11.24;100.00;100888.66;4963526;28;20158;-71
2022/01/03 09:42:05;;;;;;;16.40;11.20;;;;;;;11.07;100.00;100868.88;4976607;28;20074;-70
2022/01/03 09:44:51;;;;;;;16.15;11.80;;;;;;;11.36;100.00;100866.59;4963117;28;20035;-71
2022/01/03 09:47:43;;;;;;;20.13;12.63;;;;;;;11.13;100.00;100863.53;4976792;28;20045;-70
2022/01/03 09:50:32;;;;;;;17.08;11.80;;;;;;;10.95;100.00;100866.44;4977024;28;20125;-72
2022/01/03 09:53:19;;;;;;;17.17;11.75;;;;;;;11.03;100.00;100854.97;4963204;28;20037;-71
2022/01/03 09:56:06;;;;;;;15.15;11.23;;;;;;;11.58;100.00;100862.69;4977149;28;20031;-72
2022/01/03 09:58:52;;;;;;;14.15;10.65;;;;;;;11.38;100.00;100864.81;4976602;28;20023;-71
2022/01/03 10:01:40;;;;;;;15.93;11.07;;;;;;;11.59;100.00;100877.53;4976852;28;20441;-71
2022/01/03 10:04:26;;;;;;;13.70;10.27;;;;;;;11.12;100.00;100869.66;4976597;28;20109;-72
2022/01/03 10:07:14;;;;;;;16.13;10.25;;;;;;;11.25;100.00;100858.91;4976869;28;20373;-71
2022/01/03 10:10:01;;;;;;;14.50;10.90;;;;;;;11.68;100.00;100854.63;4976418;28;20212;-71
2022/01/03 10:12:47;;;;;;;14.98;10.73;;;;;;;11.81;100.00;100852.66;4976732;28;20041;-70
2022/01/03 10:15:32;;;;;;;12.88;9.63;;;;;;;11.59;100.00;100844.28;4976200;28;20052;-70
2022/01/03 10:18:20;;;;;;;14.00;9.60;;;;;;;11.66;100.00;100845.91;4976064;28;20086;-71
2022/01/03 10:21:07;;;;;;;12.50;10.20;;;;;;;11.64;100.00;100841.59;4976542;28;20101;-71
2022/01/03 10:23:57;;;;;;;13.90;11.02;;;;;;;11.50;100.00;100841.84;4976113;28;20058;-71
2022/01/03 10:26:54;;;;;;;15.32;11.10;;;;;;;11.66;100.00;100832.78;4976151;28;20372;-71
2022/01/03 10:29:41;;;;;;;13.77;10.57;;;;;;;11.80;100.00;100829.91;4961325;28;20035;-72
2022/01/03 10:32:29;;;;;;;14.90;10.48;;;;;;;12.13;100.00;100813.44;4976319;28;20361;-72
2022/01/03 10:35:17;;;;;;;15.35;10.50;;;;;;;12.14;100.00;100809.91;4976479;28;20463;-71
2022/01/03 10:38:03;;;;;;;16.70;11.35;;;;;;;12.43;100.00;100808.34;4974925;28;20034;-71
2022/01/03 10:40:49;;;;;;;17.45;11.02;;;;;;;12.48;100.00;100811.72;4975211;28;20340;-70
2022/01/03 10:43:35;;;;;;;14.48;10.40;;;;;;;12.28;100.00;100807.81;4975990;28;20364;-71
2022/01/03 10:46:23;;;;;;;15.40;10.85;;;;;;;12.73;100.00;100817.22;4961858;28;20097;-71
2022/01/03 10:49:21;;;;;;;13.73;9.93;;;;;;;12.84;100.00;100802.06;4962307;28;20065;-72
2022/01/03 10:52:11;;;;;;;15.68;10.43;;;;;;;12.71;100.00;100805.91;4974804;28;20081;-71
2022/01/03 10:55:11;;;;;;;14.10;9.98;;;;;;;13.09;100.00;100801.44;4976434;28;20030;-72
2022/01/03 10:58:02;;;;;;;10.68;8.38;;;;;;;13.47;100.00;100805.66;4975699;28;20023;-72
2022/01/03 11:00:49;;;;;;;11.75;8.82;;;;;;;13.36;100.00;100795.44;4975525;28;20038;-71
2022/01/03 11:03:43;;;;;;;15.02;9.52;;;;;;;13.52;100.00;100780.94;4975105;28;20106;-71
2022/01/03 11:12:40;;;;;;;11.40;8.45;;;;;;;14.11;100.00;100777.38;4951283;28;20058;-71
2022/01/03 11:15:26;;;;;;;16.45;9.73;;;;;;;13.83;100.00;100770.38;4961799;28;20097;-71
2022/01/03 11:18:19;;;;;;;12.70;9.45;;;;;;;14.25;100.00;100764.69;4962663;28;20027;-72
2022/01/03 11:21:19;;;;;;;15.95;9.73;;;;;;;14.96;100.00;100764.06;4975809;28;20027;-71
2022/01/03 11:24:09;;;;;;;13.57;9.23;;;;;;;14.91;100.00;100755.47;4961272;28;20179;-71
2022/01/03 11:26:56;;;;;;;12.57;9.15;;;;;;;14.58;100.00;100758.31;4975575;28;20053;-72
2022/01/03 11:29:42;;;;;;;12.63;9.15;;;;;;;13.89;100.00;100760.53;4961877;28;20118;-72
2022/01/03 11:32:29;;;;;;;13.35;8.73;;;;;;;14.16;100.00;100757.03;4962027;28;20471;-71
2022/01/03 11:35:16;;;;;;;12.88;8.95;;;;;;;13.57;100.00;100750.09;4975690;28;20046;-72
2022/01/03 11:38:02;;;;;;;13.90;8.30;;;;;;;13.52;100.00;100736.19;4961713;28;20062;-71
2022/01/03 11:40:49;;;;;;;12.93;8.20;;;;;;;14.07;100.00;100744.13;4975157;28;20514;-72
2022/01/03 11:43:36;;;;;;;14.70;8.52;;;;;;;14.20;100.00;100749.91;4975723;28;20035;-71
2022/01/03 11:46:23;;;;;;;16.30;9.40;;;;;;;14.57;100.00;100751.34;4975083;28;20023;-72
2022/01/03 11:49:09;;;;;;;11.43;8.32;;;;;;;14.25;100.00;100751.53;4961811;28;20042;-71
2022/01/03 11:52:01;;;;;;;14.35;8.57;;;;;;;14.33;100.00;100754.78;4975874;28;20030;-72
2022/01/03 11:54:49;;;;;;;13.63;9.07;;;;;;;14.30;100.00;100746.94;4979402;28;20035;-71
2022/01/03 11:58:08;;;;;;;11.35;8.00;;;;;;;14.45;100.00;100742.97;4979059;28;20031;-72
2022/01/03 12:04:19;;;;;;;12.50;7.82;;;;;;;14.13;100.00;100727.28;4979350;28;20051;-71
2022/01/03 12:07:08;;;;;;;10.65;7.82;;;;;;;13.99;100.00;100735.63;4978939;28;20027;-73
2022/01/03 12:10:07;;;;;;;12.02;7.93;;;;;;;14.16;100.00;100725.41;4978561;28;20041;-70
2022/01/03 12:12:59;;;;;;;11.90;8.45;;;;;;;13.90;100.00;100730.63;4965107;28;20498;-72
2022/01/03 12:15:45;;;;;;;12.07;8.48;;;;;;;13.95;100.00;100731.34;4979047;28;20031;-71
2022/01/03 12:18:32;;;;;;;12.27;8.70;;;;;;;13.99;100.00;100729.50;4978423;28;20030;-71
2022/01/03 12:21:48;;;;;;;12.35;8.40;;;;;;;13.94;100.00;100720.84;4978377;28;20105;-72
2022/01/03 12:24:43;;;;;;;11.75;8.18;;;;;;;13.87;100.00;100720.19;4978277;28;20065;-72
2022/01/03 12:27:36;;;;;;;14.23;7.70;;;;;;;13.64;100.00;100721.81;4978271;28;20038;-72
2022/01/03 12:30:25;;;;;;;13.95;8.30;;;;;;;13.70;100.00;100713.69;4978335;28;20027;-71
2022/01/03 12:33:12;;;;;;;12.52;7.95;;;;;;;13.28;100.00;100715.84;4977795;28;20034;-71
2022/01/03 12:36:16;;;;;;;14.05;9.00;;;;;;;13.35;100.00;100701.59;4978280;28;20037;-71
2022/01/03 12:39:08;;;;;;;16.60;9.85;;;;;;;13.52;100.00;100703.75;4977720;28;20026;-71
2022/01/03 12:41:55;;;;;;;16.85;9.80;;;;;;;13.76;100.00;100698.63;4978336;28;20333;-72
2022/01/03 12:44:46;;;;;;;13.77;9.15;;;;;;;14.04;100.00;100695.97;4978133;28;20456;-71
2022/01/03 12:47:37;;;;;;;13.43;8.55;;;;;;;13.77;100.00;100692.44;4977072;28;20027;-73
2022/01/03 12:50:27;;;;;;;11.57;8.38;;;;;;;13.99;100.00;100692.63;4978398;28;20030;-72
2022/01/03 12:53:32;;;;;;;11.93;8.27;;;;;;;14.16;100.00;100698.22;4977201;28;20037;-73
2022/01/03 12:56:27;;;;;;;12.20;8.32;;;;;;;14.08;100.00;100702.88;4976985;28;20165;-71
2022/01/03 12:59:14;;;;;;;12.57;9.23;;;;;;;14.06;100.00;100704.66;4978123;28;20337;-71
2022/01/03 13:02:28;;;;;;;11.82;8.75;;;;;;;14.39;100.00;100701.84;4978210;28;20356;-71
2022/01/03 13:05:14;;;;;;;15.07;8.27;;;;;;;14.50;100.00;100702.34;4976541;28;20023;-72